createdAt,value
2018-02-09T00:00:05.323Z,20.81
2018-02-09T00:02:32.742Z,20.93
2018-02-09T00:05:00.605Z,20.99
2018-02-09T00:07:28.225Z,21.00
2018-02-09T00:09:55.700Z,21.03
2018-02-09T00:12:23.428Z,21.01
2018-02-09T00:14:50.732Z,20.99
2018-02-09T00:17:18.376Z,20.91
2018-02-09T00:19:45.728Z,20.81
2018-02-09T00:22:13.270Z,20.79
2018-02-09T00:24:40.696Z,20.77
2018-02-09T00:27:08.232Z,20.81
2018-02-09T00:29:35.673Z,20.85
2018-02-09T00:32:03.239Z,20.85
2018-02-09T00:34:30.636Z,20.81
2018-02-09T00:36:58.009Z,20.81
2018-02-09T00:39:25.589Z,20.97
2018-02-09T00:41:52.720Z,21.10
2018-02-09T00:44:20.263Z,21.16
2018-02-09T00:46:47.695Z,21.26
2018-02-09T00:49:15.343Z,21.17
2018-02-09T00:51:42.732Z,21.05
2018-02-09T00:54:10.324Z,20.98
2018-02-09T00:56:37.679Z,20.94
2018-02-09T00:59:05.370Z,20.88
2018-02-09T01:01:32.719Z,20.83
2018-02-09T01:04:00.211Z,20.80
2018-02-09T01:06:27.664Z,20.75
2018-02-09T01:08:54.917Z,20.69
2018-02-09T01:11:22.589Z,20.63
2018-02-09T01:13:49.791Z,20.60
2018-02-09T01:16:17.347Z,20.83
2018-02-09T01:18:44.714Z,20.91
2018-02-09T01:22:32.653Z,21.04
2018-02-09T01:25:00.245Z,21.03
2018-02-09T01:27:27.695Z,20.99
2018-02-09T01:29:55.388Z,20.96
2018-02-09T01:32:22.716Z,20.95
2018-02-09T01:34:50.221Z,20.93
2018-02-09T01:37:17.666Z,20.94
2018-02-09T01:39:45.232Z,20.88
2018-02-09T01:42:12.672Z,20.86
2018-02-09T01:44:40.235Z,20.81
2018-02-09T01:47:07.594Z,20.80
2018-02-09T01:49:34.694Z,20.79
2018-02-09T01:52:02.218Z,20.78
2018-02-09T01:54:29.730Z,20.82
2018-02-09T01:56:57.315Z,20.95
2018-02-09T01:59:24.756Z,20.98
2018-02-09T02:01:52.405Z,21.01
2018-02-09T02:04:19.780Z,21.05
2018-02-09T02:06:47.413Z,21.02
2018-02-09T02:09:14.777Z,20.98
2018-02-09T02:11:42.644Z,20.89
2018-02-09T02:14:10.238Z,20.83
2018-02-09T02:16:37.723Z,20.78
2018-02-09T02:19:05.592Z,20.77
2018-02-09T02:21:32.742Z,20.80
2018-02-09T02:24:00.324Z,20.81
2018-02-09T02:26:27.746Z,20.80
2018-02-09T02:28:55.633Z,20.78
2018-02-09T02:31:23.019Z,20.89
2018-02-09T02:33:50.610Z,21.04
2018-02-09T02:36:17.784Z,21.14
2018-02-09T02:38:45.707Z,21.18
2018-02-09T02:41:13.400Z,21.19
2018-02-09T02:43:40.741Z,21.09
2018-02-09T02:46:08.289Z,21.03
2018-02-09T02:48:35.680Z,20.99
2018-02-09T02:51:03.198Z,20.94
2018-02-09T02:53:30.597Z,20.91
2018-02-09T02:55:57.801Z,20.81
2018-02-09T02:58:25.488Z,20.69
2018-02-09T03:00:52.716Z,20.69
2018-02-09T03:03:20.432Z,20.67
2018-02-09T03:05:47.757Z,20.66
2018-02-09T03:08:15.518Z,20.80
2018-02-09T03:10:42.748Z,20.89
2018-02-09T03:13:10.407Z,20.92
2018-02-09T03:15:37.766Z,21.01
2018-02-09T03:18:05.393Z,21.00
2018-02-09T03:20:32.715Z,21.01
2018-02-09T03:23:00.255Z,20.95
2018-02-09T03:25:27.687Z,20.86
2018-02-09T03:27:55.185Z,20.84
2018-02-09T03:30:22.574Z,20.85
2018-02-09T03:32:49.714Z,20.83
2018-02-09T03:35:17.388Z,20.82
2018-02-09T03:37:44.737Z,20.75
2018-02-09T03:40:12.345Z,20.69
2018-02-09T03:42:39.774Z,20.69
2018-02-09T03:45:07.362Z,20.69
2018-02-09T03:47:34.752Z,20.84
2018-02-09T03:50:02.412Z,20.94
2018-02-09T03:52:29.759Z,20.98
2018-02-09T03:54:57.438Z,20.97
2018-02-09T03:57:24.750Z,20.92
2018-02-09T03:59:52.364Z,20.87
2018-02-09T04:02:19.776Z,20.83
2018-02-09T04:04:47.561Z,20.76
2018-02-09T04:07:14.727Z,20.75
2018-02-09T04:09:42.398Z,20.68
2018-02-09T04:12:09.761Z,20.66
2018-02-09T04:14:37.572Z,20.70
2018-02-09T04:17:04.815Z,20.71
2018-02-09T04:19:32.646Z,20.74
2018-02-09T04:21:59.961Z,20.96
2018-02-09T04:24:27.596Z,21.04
2018-02-09T04:26:54.727Z,21.06
2018-02-09T04:29:22.249Z,21.05
2018-02-09T04:31:49.717Z,21.01
2018-02-09T04:34:17.222Z,20.96
2018-02-09T04:36:44.693Z,20.88
2018-02-09T04:39:12.347Z,20.84
2018-02-09T04:41:39.712Z,20.77
2018-02-09T04:44:07.257Z,20.65
2018-02-09T04:46:34.675Z,20.61
2018-02-09T04:49:02.234Z,20.60
2018-02-09T04:51:29.694Z,20.61
2018-02-09T04:53:57.236Z,20.57
2018-02-09T04:56:24.696Z,20.72
2018-02-09T04:58:52.385Z,20.78
2018-02-09T05:01:19.730Z,20.81
2018-02-09T05:03:47.371Z,20.80
2018-02-09T05:06:14.712Z,20.76
2018-02-09T05:08:42.377Z,20.80
2018-02-09T05:11:09.742Z,20.74
2018-02-09T05:13:37.388Z,20.70
2018-02-09T05:16:04.701Z,20.68
2018-02-09T05:18:32.355Z,20.64
2018-02-09T05:20:59.725Z,20.65
2018-02-09T05:23:27.492Z,20.71
2018-02-09T05:25:54.699Z,20.68
2018-02-09T05:28:22.377Z,20.70
2018-02-09T05:30:49.692Z,20.78
2018-02-09T05:33:17.246Z,20.83
2018-02-09T05:35:44.730Z,20.87
2018-02-09T05:38:12.324Z,21.18
2018-02-09T05:40:39.687Z,21.20
2018-02-09T05:43:06.915Z,21.18
2018-02-09T05:45:34.630Z,21.02
2018-02-09T05:48:02.046Z,20.94
2018-02-09T05:50:29.578Z,20.89
2018-02-09T05:52:56.763Z,20.85
2018-02-09T05:55:24.350Z,20.82
2018-02-09T06:00:47.717Z,20.98
2018-02-09T06:03:15.349Z,21.05
2018-02-09T06:05:42.688Z,20.99
2018-02-09T06:08:10.181Z,21.20
2018-02-09T06:10:37.665Z,21.41
2018-02-09T06:13:05.278Z,21.39
2018-02-09T06:15:32.719Z,21.36
2018-02-09T06:18:00.350Z,21.21
2018-02-09T06:20:27.707Z,21.29
2018-02-09T06:22:55.397Z,21.22
2018-02-09T06:25:22.700Z,21.15
2018-02-09T06:27:50.353Z,21.13
2018-02-09T06:30:17.694Z,20.84
2018-02-09T06:32:45.220Z,20.70
2018-02-09T06:35:12.709Z,20.74
2018-02-09T06:37:40.258Z,20.75
2018-02-09T06:40:07.672Z,20.74
2018-02-09T06:42:35.348Z,20.82
2018-02-09T06:45:02.804Z,21.00
2018-02-09T06:47:30.741Z,21.03
2018-02-09T06:49:58.377Z,21.05
2018-02-09T06:52:25.984Z,21.13
2018-02-09T06:54:53.679Z,21.13
2018-02-09T06:57:21.418Z,21.01
2018-02-09T06:59:48.735Z,21.01
2018-02-09T07:02:16.376Z,20.98
2018-02-09T07:04:43.786Z,21.03
2018-02-09T07:07:11.678Z,21.08
2018-02-09T07:09:39.379Z,21.04
2018-02-09T07:12:06.777Z,21.07
2018-02-09T07:14:34.742Z,21.03
2018-02-09T07:17:02.374Z,21.04
2018-02-09T07:19:29.808Z,20.99
2018-02-09T07:21:57.710Z,21.09
2018-02-09T07:24:25.397Z,21.22
2018-02-09T07:26:52.799Z,21.22
2018-02-09T07:29:20.712Z,21.27
2018-02-09T07:31:48.410Z,21.25
2018-02-09T07:34:15.808Z,21.21
2018-02-09T07:36:43.682Z,21.19
2018-02-09T07:39:11.358Z,21.16
2018-02-09T07:41:38.741Z,21.08
2018-02-09T07:44:06.664Z,21.05
2018-02-09T07:46:34.225Z,21.02
2018-02-09T07:49:01.671Z,20.98
2018-02-09T07:51:29.412Z,20.95
2018-02-09T07:53:56.759Z,20.95
2018-02-09T07:56:24.537Z,21.00
2018-02-09T07:58:51.751Z,21.15
2018-02-09T08:01:19.342Z,21.27
2018-02-09T08:03:46.676Z,21.36
2018-02-09T08:06:14.269Z,21.41
2018-02-09T08:08:41.689Z,21.39
2018-02-09T08:11:09.362Z,21.42
2018-02-09T08:13:36.710Z,21.32
2018-02-09T08:16:04.237Z,21.23
2018-02-09T08:18:32.491Z,21.19
2018-02-09T08:20:59.720Z,21.15
2018-02-09T08:23:27.314Z,21.11
2018-02-09T08:25:54.713Z,21.09
2018-02-09T08:28:22.308Z,21.06
2018-02-09T08:32:40.658Z,20.99
2018-02-09T08:35:08.177Z,20.98
2018-02-09T08:37:35.597Z,21.08
2018-02-09T08:40:02.754Z,21.11
2018-02-09T08:42:30.391Z,21.15
2018-02-09T08:44:57.682Z,21.19
2018-02-09T08:47:25.367Z,21.14
2018-02-09T08:49:52.690Z,21.11
2018-02-09T08:52:20.377Z,21.16
2018-02-09T08:54:47.760Z,21.16
2018-02-09T08:57:15.401Z,21.14
2018-02-09T08:59:42.726Z,21.14
2018-02-09T09:02:10.341Z,21.14
2018-02-09T09:04:37.703Z,21.11
2018-02-09T09:07:05.219Z,21.10
2018-02-09T09:09:32.665Z,21.11
2018-02-09T09:12:00.208Z,21.11
2018-02-09T09:14:27.673Z,21.12
2018-02-09T09:16:55.183Z,21.18
2018-02-09T09:19:22.595Z,21.20
2018-02-09T09:21:49.684Z,21.23
2018-02-09T09:24:17.224Z,21.23
2018-02-09T09:26:44.655Z,21.27
2018-02-09T09:29:11.966Z,21.28
2018-02-09T09:31:39.591Z,21.24
2018-02-09T09:34:06.699Z,21.21
2018-02-09T09:36:34.253Z,21.18
2018-02-09T09:39:01.670Z,21.15
2018-02-09T09:41:29.194Z,21.13
2018-02-09T09:43:56.652Z,21.10
2018-02-09T09:46:23.924Z,21.07
2018-02-09T09:48:51.550Z,21.09
2018-02-09T09:51:18.685Z,21.11
2018-02-09T09:53:46.229Z,21.25
2018-02-09T09:56:13.649Z,21.32
2018-02-09T09:58:40.921Z,21.40
2018-02-09T10:01:08.396Z,21.44
2018-02-09T10:03:35.715Z,21.42
2018-02-09T10:06:03.269Z,21.42
2018-02-09T10:08:30.672Z,21.35
2018-02-09T10:10:58.231Z,21.33
2018-02-09T10:13:25.693Z,21.29
2018-02-09T10:15:53.321Z,21.27
2018-02-09T10:18:20.718Z,21.22
2018-02-09T10:20:48.239Z,21.19
2018-02-09T10:23:15.684Z,21.16
2018-02-09T10:25:43.202Z,21.13
2018-02-09T10:28:10.704Z,21.14
2018-02-09T10:30:38.194Z,21.17
2018-02-09T10:33:05.684Z,21.22
2018-02-09T10:36:59.732Z,21.28
2018-02-09T10:39:27.393Z,21.28
2018-02-09T10:41:54.712Z,21.30
2018-02-09T10:44:22.190Z,21.27
2018-02-09T10:46:49.606Z,21.31
2018-02-09T10:49:16.764Z,21.29
2018-02-09T10:51:44.587Z,21.28
2018-02-09T10:54:11.715Z,21.30
2018-02-09T10:56:39.412Z,21.30
2018-02-09T10:59:06.746Z,21.31
2018-02-09T11:01:34.512Z,21.35
2018-02-09T11:04:01.713Z,21.40
2018-02-09T11:06:29.261Z,21.53
2018-02-09T11:08:56.729Z,21.57
2018-02-09T11:11:24.216Z,21.52
2018-02-09T11:13:51.642Z,21.52
2018-02-09T11:16:18.939Z,21.31
2018-02-09T11:18:46.465Z,21.23
2018-02-09T11:21:13.706Z,21.29
2018-02-09T11:23:41.362Z,21.39
2018-02-09T11:26:08.660Z,21.38
2018-02-09T11:28:35.924Z,21.34
2018-02-09T11:31:03.566Z,21.29
2018-02-09T11:33:30.670Z,20.96
2018-02-09T11:35:58.268Z,21.08
2018-02-09T11:38:25.644Z,21.17
2018-02-09T11:40:52.811Z,21.28
2018-02-09T11:43:20.523Z,21.43
2018-02-09T11:45:47.701Z,21.56
2018-02-09T11:48:15.059Z,21.59
2018-02-09T11:50:42.568Z,21.70
2018-02-09T11:53:09.720Z,21.66
2018-02-09T11:55:37.185Z,21.58
2018-02-09T11:58:04.617Z,21.64
2018-02-09T12:00:32.209Z,21.61
2018-02-09T12:02:59.594Z,21.58
2018-02-09T12:05:26.720Z,21.57
2018-02-09T12:07:54.234Z,21.53
2018-02-09T12:10:21.642Z,21.51
2018-02-09T12:12:49.236Z,21.42
2018-02-09T12:15:16.577Z,21.39
2018-02-09T12:17:43.742Z,21.44
2018-02-09T12:20:11.287Z,21.43
2018-02-09T12:22:38.730Z,21.43
2018-02-09T12:25:06.205Z,21.47
2018-02-09T12:27:33.614Z,21.51
2018-02-09T12:30:00.836Z,21.48
2018-02-09T12:32:28.553Z,21.47
2018-02-09T12:34:55.700Z,21.52
2018-02-09T12:37:23.264Z,21.48
2018-02-09T12:39:50.697Z,21.50
2018-02-09T12:42:18.334Z,21.49
2018-02-09T12:44:45.737Z,21.50
2018-02-09T12:47:13.406Z,21.49
2018-02-09T12:49:40.711Z,21.51
2018-02-09T12:52:08.264Z,21.49
2018-02-09T12:54:35.664Z,21.46
2018-02-09T12:57:03.274Z,21.62
2018-02-09T12:59:30.638Z,21.59
2018-02-09T13:01:58.223Z,21.51
2018-02-09T13:04:25.720Z,21.42
2018-02-09T13:06:53.406Z,21.45
2018-02-09T13:09:20.774Z,21.42
2018-02-09T13:11:48.574Z,21.47
2018-02-09T13:14:15.780Z,21.39
2018-02-09T13:16:43.484Z,21.40
2018-02-09T13:19:10.714Z,21.37
2018-02-09T13:21:38.437Z,21.40
2018-02-09T13:24:05.794Z,21.40
2018-02-09T13:26:33.657Z,21.39
2018-02-09T13:29:00.886Z,21.60
2018-02-09T13:31:28.634Z,21.64
2018-02-09T13:33:55.814Z,21.69
2018-02-09T13:36:23.496Z,21.77
2018-02-09T13:38:50.746Z,21.79
2018-02-09T13:41:18.541Z,21.83
2018-02-09T13:43:45.685Z,21.81
2018-02-09T13:46:13.231Z,21.79
2018-02-09T13:48:40.597Z,21.70
2018-02-09T13:51:07.762Z,21.67
2018-02-09T13:53:35.362Z,21.65
2018-02-09T13:56:02.763Z,21.63
2018-02-09T13:58:30.496Z,21.67
2018-02-09T14:00:57.775Z,21.70
2018-02-09T14:03:25.637Z,21.63
2018-02-09T14:05:53.213Z,21.56
2018-02-09T14:08:20.637Z,21.55
2018-02-09T14:10:48.331Z,21.55
2018-02-09T14:13:15.752Z,21.57
2018-02-09T14:15:43.641Z,21.61
2018-02-09T14:18:11.195Z,21.71
2018-02-09T14:20:38.731Z,21.67
2018-02-09T14:23:06.328Z,21.57
2018-02-09T14:25:33.756Z,21.52
2018-02-09T14:28:01.430Z,21.49
2018-02-09T14:30:28.716Z,21.48
2018-02-09T14:32:56.379Z,21.46
2018-02-09T14:35:23.784Z,21.45
2018-02-09T14:37:51.626Z,21.44
2018-02-09T14:40:19.213Z,21.45
2018-02-09T14:42:46.679Z,21.41
2018-02-09T14:45:14.326Z,21.37
2018-02-09T14:47:41.706Z,21.38
2018-02-09T14:50:09.390Z,21.47
2018-02-09T14:52:36.725Z,21.51
2018-02-09T14:55:04.600Z,21.54
2018-02-09T14:57:31.797Z,21.53
2018-02-09T14:59:59.639Z,21.51
2018-02-09T15:02:26.830Z,21.45
2018-02-09T15:04:54.505Z,21.43
2018-02-09T15:07:21.694Z,21.40
2018-02-09T15:09:48.992Z,21.36
2018-02-09T15:12:16.538Z,21.28
2018-02-09T15:14:43.672Z,21.23
2018-02-09T15:17:11.212Z,21.19
2018-02-09T15:19:38.666Z,21.13
2018-02-09T15:22:06.197Z,21.08
2018-02-09T15:24:33.639Z,21.10
2018-02-09T15:27:01.181Z,21.20
2018-02-09T15:29:28.599Z,21.34
2018-02-09T15:31:55.791Z,21.41
2018-02-09T15:34:23.610Z,21.39
2018-02-09T15:36:50.982Z,21.38
2018-02-09T15:39:18.566Z,21.30
2018-02-09T15:41:45.746Z,21.22
2018-02-09T15:44:13.343Z,21.19
2018-02-09T15:46:40.746Z,21.15
2018-02-09T15:49:08.314Z,21.08
2018-02-09T15:51:35.577Z,21.10
2018-02-09T15:54:02.716Z,21.07
2018-02-09T15:56:30.380Z,21.07
2018-02-09T15:58:57.713Z,21.06
2018-02-09T16:01:25.342Z,21.15
2018-02-09T16:03:52.701Z,21.21
2018-02-09T16:06:20.225Z,21.23
2018-02-09T16:08:47.668Z,21.28
2018-02-09T16:11:15.199Z,21.25
2018-02-09T16:13:42.665Z,21.23
2018-02-09T16:16:10.077Z,21.16
2018-02-09T16:18:37.568Z,21.10
2018-02-09T16:21:05.589Z,21.09
2018-02-09T16:23:32.728Z,21.13
2018-02-09T16:26:00.216Z,21.11
2018-02-09T16:28:27.717Z,21.11
2018-02-09T16:30:55.292Z,21.10
2018-02-09T16:33:22.686Z,21.12
2018-02-09T16:35:50.193Z,21.30
2018-02-09T16:38:17.584Z,21.34
2018-02-09T16:40:44.756Z,21.39
2018-02-09T16:43:12.404Z,21.40
2018-02-09T16:45:39.780Z,21.38
2018-02-09T16:48:07.361Z,21.32
2018-02-09T16:50:34.718Z,21.25
2018-02-09T16:53:02.383Z,21.18
2018-02-09T16:55:29.714Z,21.12
2018-02-09T16:57:57.345Z,21.10
2018-02-09T17:00:24.693Z,21.08
2018-02-09T17:02:52.055Z,21.05
2018-02-09T17:05:19.611Z,21.02
2018-02-09T17:07:46.775Z,21.01
2018-02-09T17:10:14.418Z,21.14
2018-02-09T17:12:41.710Z,21.20
2018-02-09T17:15:09.237Z,21.24
2018-02-09T17:17:36.676Z,21.29
2018-02-09T17:20:04.228Z,21.35
2018-02-09T17:22:31.699Z,21.32
2018-02-09T17:24:59.245Z,21.25
2018-02-09T17:27:51.686Z,21.19
2018-02-09T17:30:19.361Z,21.16
2018-02-09T17:32:46.695Z,21.14
2018-02-09T17:35:14.186Z,21.17
2018-02-09T17:37:41.631Z,21.14
2018-02-09T17:40:08.802Z,21.12
2018-02-09T17:42:36.572Z,21.05
2018-02-09T17:45:03.698Z,21.06
2018-02-09T17:47:31.047Z,20.49
2018-02-09T17:49:58.554Z,20.91
2018-02-09T17:52:25.723Z,21.10
2018-02-09T17:54:53.581Z,21.16
2018-02-09T17:57:20.684Z,21.32
2018-02-09T17:59:48.059Z,21.26
2018-02-09T18:02:15.575Z,21.18
2018-02-09T18:04:42.711Z,21.09
2018-02-09T18:07:10.392Z,21.03
2018-02-09T18:09:37.731Z,20.98
2018-02-09T18:12:05.384Z,20.88
2018-02-09T18:14:32.716Z,20.96
2018-02-09T18:17:00.238Z,20.72
2018-02-09T18:19:27.650Z,20.97
2018-02-09T18:21:55.241Z,21.05
2018-02-09T18:24:22.646Z,21.32
2018-02-09T18:29:15.636Z,21.82
2018-02-09T18:31:43.573Z,22.14
2018-02-09T18:34:10.768Z,22.30
2018-02-09T18:36:38.379Z,22.44
2018-02-09T18:39:05.701Z,22.21
2018-02-09T18:41:33.044Z,22.19
2018-02-09T18:44:00.618Z,22.04
2018-02-09T18:46:27.924Z,22.02
2018-02-09T18:48:55.584Z,22.00
2018-02-09T18:51:22.731Z,21.92
2018-02-09T18:53:50.338Z,21.78
2018-02-09T18:56:17.760Z,21.63
2018-02-09T18:58:45.413Z,21.61
2018-02-09T19:01:12.740Z,21.55
2018-02-09T19:03:40.379Z,21.41
2018-02-09T19:06:07.703Z,21.34
2018-02-09T19:08:35.350Z,21.29
2018-02-09T19:11:02.775Z,21.40
2018-02-09T19:13:30.581Z,21.45
2018-02-09T19:15:57.807Z,21.94
2018-02-09T19:18:25.654Z,22.43
2018-02-09T19:20:53.360Z,22.89
2018-02-09T19:23:20.762Z,23.04
2018-02-09T19:25:48.687Z,22.93
2018-02-09T19:28:16.341Z,22.76
2018-02-09T19:30:43.724Z,22.53
2018-02-09T19:33:11.323Z,22.59
2018-02-09T19:35:38.703Z,22.55
2018-02-09T19:38:06.404Z,22.16
2018-02-09T19:40:33.716Z,22.04
2018-02-09T19:43:01.436Z,21.96
2018-02-09T19:45:28.774Z,21.94
2018-02-09T19:47:56.564Z,21.90
2018-02-09T19:50:23.688Z,21.91
2018-02-09T19:52:51.244Z,21.98
2018-02-09T19:55:18.690Z,22.09
2018-02-09T19:57:46.326Z,22.12
2018-02-09T20:00:13.726Z,22.13
2018-02-09T20:02:41.188Z,22.12
2018-02-09T20:05:08.663Z,22.16
2018-02-09T20:07:36.060Z,22.18
2018-02-09T20:10:03.630Z,21.85
2018-02-09T20:12:31.195Z,21.74
2018-02-09T20:15:11.563Z,21.56
2018-02-09T20:17:38.655Z,21.46
2018-02-09T20:20:05.907Z,21.41
2018-02-09T20:22:33.583Z,21.42
2018-02-09T20:25:00.753Z,21.42
2018-02-09T20:27:28.259Z,21.48
2018-02-09T20:29:55.700Z,21.63
2018-02-09T20:32:23.248Z,21.63
2018-02-09T20:34:50.661Z,21.58
2018-02-09T20:37:17.892Z,21.54
2018-02-09T20:39:45.641Z,21.50
2018-02-09T20:42:13.195Z,21.41
2018-02-09T20:44:40.649Z,21.36
2018-02-09T20:47:07.920Z,21.32
2018-02-09T20:49:35.595Z,21.28
2018-02-09T20:52:02.699Z,21.23
2018-02-09T20:54:30.225Z,21.17
2018-02-09T20:56:57.659Z,21.12
2018-02-09T20:59:24.910Z,21.13
2018-02-09T21:01:52.602Z,21.15
2018-02-09T21:04:19.778Z,21.21
2018-02-09T21:06:47.412Z,21.42
2018-02-09T21:09:14.730Z,21.54
2018-02-09T21:11:42.209Z,21.60
2018-02-09T21:14:09.681Z,21.63
2018-02-09T21:16:37.187Z,21.60
2018-02-09T21:19:04.667Z,21.53
2018-02-09T21:21:32.347Z,21.44
2018-02-09T21:24:02.648Z,21.38
2018-02-09T21:26:29.884Z,21.32
2018-02-09T21:28:57.595Z,21.27
2018-02-09T21:31:24.779Z,21.24
2018-02-09T21:33:52.486Z,21.15
2018-02-09T21:36:19.689Z,21.15
2018-02-09T21:38:47.355Z,21.14
2018-02-09T21:41:14.733Z,21.13
2018-02-09T21:43:42.241Z,21.08
2018-02-09T21:46:09.649Z,21.12
2018-02-09T21:48:37.216Z,21.31
2018-02-09T21:51:04.687Z,21.42
2018-02-09T21:53:32.263Z,21.46
2018-02-09T21:55:59.719Z,21.51
2018-02-09T21:58:27.393Z,21.52
2018-02-09T22:00:54.793Z,21.51
2018-02-09T22:03:22.652Z,21.42
2018-02-09T22:05:50.214Z,21.37
2018-02-09T22:08:35.770Z,21.34
2018-02-09T22:11:03.620Z,21.35
2018-02-09T22:13:30.925Z,21.32
2018-02-09T22:15:58.624Z,21.33
2018-02-09T22:18:25.903Z,21.27
2018-02-09T22:20:53.686Z,21.26
2018-02-09T22:23:21.332Z,21.19
2018-02-09T22:25:48.763Z,21.18
2018-02-09T22:28:16.619Z,21.18
2018-02-09T22:30:44.191Z,21.21
2018-02-09T22:33:11.631Z,21.21
2018-02-09T22:35:39.243Z,21.42
2018-02-09T22:39:09.747Z,21.55
2018-02-09T22:41:37.404Z,21.62
2018-02-09T22:44:04.752Z,21.63
2018-02-09T22:46:32.623Z,21.57
2018-02-09T22:48:59.894Z,21.50
2018-02-09T22:51:27.600Z,21.41
2018-02-09T22:53:54.787Z,21.35
2018-02-09T22:56:22.426Z,21.39
2018-02-09T22:58:51.911Z,21.43
2018-02-09T23:01:19.422Z,21.41
2018-02-09T23:03:46.700Z,21.45
2018-02-09T23:06:14.329Z,21.39
2018-02-09T23:08:41.668Z,21.39
2018-02-09T23:11:09.262Z,21.38
2018-02-09T23:13:36.657Z,21.40
2018-02-09T23:16:03.908Z,21.39
2018-02-09T23:18:31.597Z,21.36
2018-02-09T23:20:58.737Z,21.31
2018-02-09T23:23:26.564Z,21.23
2018-02-09T23:25:53.724Z,21.24
2018-02-09T23:28:21.369Z,21.43
2018-02-09T23:30:48.774Z,21.53
2018-02-09T23:33:16.411Z,21.58
2018-02-09T23:35:43.720Z,21.61
2018-02-09T23:38:11.360Z,21.54
2018-02-09T23:40:38.687Z,21.44
2018-02-09T23:43:06.226Z,21.36
2018-02-09T23:45:33.755Z,21.30
2018-02-09T23:48:01.363Z,21.28
2018-02-09T23:50:41.645Z,21.30
2018-02-09T23:53:08.942Z,21.30
2018-02-09T23:55:36.631Z,21.31
2018-02-09T23:58:03.906Z,21.31
